aviador You're here:

KHSE Decoded Metar

HATTERAS/MITCHEL in NC, USA
Report Time2017-11-25 04:51:00
UTC Time2017-11-25 05:28:46
Flight Rules vfr VFR
WindVRB at 05 kt
Visibility9999 m
Phenomena:N/A
Clouds:N/A
Expected CloudBase > 400 ft AGL from Temp-Dew spread
CeilingNone
Temp13°C (ISA -2)
Dew Point12°C (94% RH)
AAT11.8°C
QNH1012 hPa
Density Alt-3 ft
Elevation10 ft
Report Wrong Elevation
Raw Report
METAR KHSE 250451Z AUTO VRB05KT 10SM CLR 13/12 A2989 RMK AO2 SLP122
T01330122 401670100 TSNO=

Extra information for KHSE:More info

Metar Taf Metar & Taf Last 4 Metars F.Rules Stats Wind Profile Meteogram Temp Stats Airport Information Weather charts Add Link Nearby VenuesMetar ALERT Operation Metar Decoded Social comments

AIRNAV info for KHSE